sensor_id;sensor_type;location;lat;lon;timestamp;P1;durP1;ratioP1;P2;durP2;ratioP2
12719;SDS011;6424;48.520;11.228;2022-07-23T00:00:14;10.47;;;9.37;;
12719;SDS011;6424;48.520;11.228;2022-07-23T00:02:55;11.03;;;9.93;;
12719;SDS011;6424;48.520;11.228;2022-07-23T00:05:36;11.37;;;10.13;;
12719;SDS011;6424;48.520;11.228;2022-07-23T00:08:17;10.27;;;8.80;;
12719;SDS011;6424;48.520;11.228;2022-07-23T00:10:58;11.00;;;9.43;;
12719;SDS011;6424;48.520;11.228;2022-07-23T00:13:40;10.33;;;9.43;;
12719;SDS011;6424;48.520;11.228;2022-07-23T00:16:21;13.00;;;8.83;;
12719;SDS011;6424;48.520;11.228;2022-07-23T00:19:02;9.47;;;8.60;;
12719;SDS011;6424;48.520;11.228;2022-07-23T00:21:44;11.03;;;9.00;;
12719;SDS011;6424;48.520;11.228;2022-07-23T00:24:24;10.63;;;8.57;;
12719;SDS011;6424;48.520;11.228;2022-07-23T00:27:05;10.00;;;9.00;;
12719;SDS011;6424;48.520;11.228;2022-07-23T00:29:46;9.97;;;8.90;;
12719;SDS011;6424;48.520;11.228;2022-07-23T00:32:27;17.50;;;9.87;;
12719;SDS011;6424;48.520;11.228;2022-07-23T00:35:08;14.23;;;10.37;;
12719;SDS011;6424;48.520;11.228;2022-07-23T00:37:48;11.60;;;10.43;;
12719;SDS011;6424;48.520;11.228;2022-07-23T00:40:30;11.50;;;10.40;;
12719;SDS011;6424;48.520;11.228;2022-07-23T00:43:11;11.20;;;9.97;;
12719;SDS011;6424;48.520;11.228;2022-07-23T00:45:51;13.37;;;10.70;;
12719;SDS011;6424;48.520;11.228;2022-07-23T00:48:32;11.07;;;9.93;;
12719;SDS011;6424;48.520;11.228;2022-07-23T00:50:58;11.43;;;10.27;;
12719;SDS011;6424;48.520;11.228;2022-07-23T00:53:39;11.00;;;9.43;;
12719;SDS011;6424;48.520;11.228;2022-07-23T00:56:20;9.10;;;8.30;;
12719;SDS011;6424;48.520;11.228;2022-07-23T00:59:01;8.27;;;7.47;;
12719;SDS011;6424;48.520;11.228;2022-07-23T01:01:42;8.80;;;7.23;;
12719;SDS011;6424;48.520;11.228;2022-07-23T01:04:09;7.57;;;6.60;;
12719;SDS011;6424;48.520;11.228;2022-07-23T01:06:51;9.07;;;6.90;;
12719;SDS011;6424;48.520;11.228;2022-07-23T01:09:32;11.47;;;6.60;;
12719;SDS011;6424;48.520;11.228;2022-07-23T01:12:13;7.13;;;6.37;;
12719;SDS011;6424;48.520;11.228;2022-07-23T01:14:58;8.23;;;6.83;;
12719;SDS011;6424;48.520;11.228;2022-07-23T01:17:39;8.00;;;6.27;;
12719;SDS011;6424;48.520;11.228;2022-07-23T01:20:21;6.83;;;6.17;;
12719;SDS011;6424;48.520;11.228;2022-07-23T01:23:02;7.73;;;6.70;;
12719;SDS011;6424;48.520;11.228;2022-07-23T01:25:49;7.03;;;6.33;;
12719;SDS011;6424;48.520;11.228;2022-07-23T01:28:32;7.30;;;6.50;;
12719;SDS011;6424;48.520;11.228;2022-07-23T01:31:13;6.73;;;5.90;;
12719;SDS011;6424;48.520;11.228;2022-07-23T01:33:54;6.53;;;6.03;;
12719;SDS011;6424;48.520;11.228;2022-07-23T01:36:35;5.97;;;5.47;;
12719;SDS011;6424;48.520;11.228;2022-07-23T01:39:16;5.97;;;5.20;;
12719;SDS011;6424;48.520;11.228;2022-07-23T01:41:57;6.90;;;6.20;;
12719;SDS011;6424;48.520;11.228;2022-07-23T01:44:37;6.47;;;5.77;;
12719;SDS011;6424;48.520;11.228;2022-07-23T01:47:18;6.77;;;6.10;;
12719;SDS011;6424;48.520;11.228;2022-07-23T01:49:59;7.03;;;6.33;;
12719;SDS011;6424;48.520;11.228;2022-07-23T01:52:40;6.90;;;6.20;;
12719;SDS011;6424;48.520;11.228;2022-07-23T01:55:21;7.07;;;6.37;;
12719;SDS011;6424;48.520;11.228;2022-07-23T01:58:02;8.03;;;7.23;;
12719;SDS011;6424;48.520;11.228;2022-07-23T02:00:28;7.13;;;6.43;;
12719;SDS011;6424;48.520;11.228;2022-07-23T02:03:09;9.67;;;7.20;;
12719;SDS011;6424;48.520;11.228;2022-07-23T02:05:35;10.63;;;7.57;;
12719;SDS011;6424;48.520;11.228;2022-07-23T02:08:16;7.67;;;6.97;;
12719;SDS011;6424;48.520;11.228;2022-07-23T02:10:57;8.07;;;7.00;;
12719;SDS011;6424;48.520;11.228;2022-07-23T02:13:38;10.47;;;7.77;;
12719;SDS011;6424;48.520;11.228;2022-07-23T02:16:19;11.43;;;7.77;;
12719;SDS011;6424;48.520;11.228;2022-07-23T02:19:00;10.27;;;7.97;;
12719;SDS011;6424;48.520;11.228;2022-07-23T02:21:40;10.20;;;7.20;;
12719;SDS011;6424;48.520;11.228;2022-07-23T02:24:06;10.23;;;8.03;;
12719;SDS011;6424;48.520;11.228;2022-07-23T02:26:47;8.17;;;7.27;;
12719;SDS011;6424;48.520;11.228;2022-07-23T02:29:13;8.60;;;7.80;;
12719;SDS011;6424;48.520;11.228;2022-07-23T02:31:54;9.03;;;8.07;;
12719;SDS011;6424;48.520;11.228;2022-07-23T02:34:35;8.57;;;7.63;;
12719;SDS011;6424;48.520;11.228;2022-07-23T02:37:16;9.47;;;7.70;;
12719;SDS011;6424;48.520;11.228;2022-07-23T02:39:57;8.60;;;7.80;;
12719;SDS011;6424;48.520;11.228;2022-07-23T02:42:38;9.83;;;8.67;;
12719;SDS011;6424;48.520;11.228;2022-07-23T02:45:19;9.13;;;8.30;;
12719;SDS011;6424;48.520;11.228;2022-07-23T02:47:59;8.90;;;8.07;;
12719;SDS011;6424;48.520;11.228;2022-07-23T02:50:40;9.37;;;8.47;;
12719;SDS011;6424;48.520;11.228;2022-07-23T02:53:21;8.47;;;7.63;;
12719;SDS011;6424;48.520;11.228;2022-07-23T02:56:03;8.10;;;7.30;;
12719;SDS011;6424;48.520;11.228;2022-07-23T02:58:44;8.33;;;7.53;;
12719;SDS011;6424;48.520;11.228;2022-07-23T03:01:09;7.80;;;7.00;;
12719;SDS011;6424;48.520;11.228;2022-07-23T03:03:50;8.40;;;7.53;;
12719;SDS011;6424;48.520;11.228;2022-07-23T03:06:31;8.60;;;7.90;;
12719;SDS011;6424;48.520;11.228;2022-07-23T03:09:12;11.97;;;7.47;;
12719;SDS011;6424;48.520;11.228;2022-07-23T03:11:53;8.87;;;8.07;;
12719;SDS011;6424;48.520;11.228;2022-07-23T03:14:18;8.87;;;8.07;;
12719;SDS011;6424;48.520;11.228;2022-07-23T03:16:59;7.83;;;7.10;;
12719;SDS011;6424;48.520;11.228;2022-07-23T03:19:25;9.93;;;7.37;;
12719;SDS011;6424;48.520;11.228;2022-07-23T03:22:07;7.20;;;6.60;;
12719;SDS011;6424;48.520;11.228;2022-07-23T03:24:47;6.80;;;6.00;;
12719;SDS011;6424;48.520;11.228;2022-07-23T03:27:34;7.10;;;6.50;;
12719;SDS011;6424;48.520;11.228;2022-07-23T03:30:15;7.17;;;6.47;;
12719;SDS011;6424;48.520;11.228;2022-07-23T03:32:56;7.17;;;6.50;;
12719;SDS011;6424;48.520;11.228;2022-07-23T03:35:36;7.17;;;6.50;;
12719;SDS011;6424;48.520;11.228;2022-07-23T03:38:17;7.30;;;6.03;;
12719;SDS011;6424;48.520;11.228;2022-07-23T03:40:43;7.43;;;6.50;;
12719;SDS011;6424;48.520;11.228;2022-07-23T03:43:24;8.07;;;7.23;;
12719;SDS011;6424;48.520;11.228;2022-07-23T03:46:05;8.63;;;7.70;;
12719;SDS011;6424;48.520;11.228;2022-07-23T03:48:46;9.03;;;6.80;;
12719;SDS011;6424;48.520;11.228;2022-07-23T03:51:12;7.50;;;6.90;;
12719;SDS011;6424;48.520;11.228;2022-07-23T03:53:53;7.83;;;6.80;;
12719;SDS011;6424;48.520;11.228;2022-07-23T03:56:34;7.83;;;6.87;;
12719;SDS011;6424;48.520;11.228;2022-07-23T03:59:15;8.57;;;6.93;;
12719;SDS011;6424;48.520;11.228;2022-07-23T04:01:56;6.33;;;5.63;;
12719;SDS011;6424;48.520;11.228;2022-07-23T04:04:37;6.67;;;6.07;;
12719;SDS011;6424;48.520;11.228;2022-07-23T04:07:18;6.40;;;5.80;;
12719;SDS011;6424;48.520;11.228;2022-07-23T04:09:58;6.50;;;5.90;;
12719;SDS011;6424;48.520;11.228;2022-07-23T04:12:39;7.40;;;6.70;;
12719;SDS011;6424;48.520;11.228;2022-07-23T04:15:20;6.90;;;6.37;;
12719;SDS011;6424;48.520;11.228;2022-07-23T04:18:01;7.33;;;6.63;;
12719;SDS011;6424;48.520;11.228;2022-07-23T04:20:42;8.50;;;6.67;;
12719;SDS011;6424;48.520;11.228;2022-07-23T04:23:23;7.07;;;6.37;;
12719;SDS011;6424;48.520;11.228;2022-07-23T04:26:04;6.73;;;6.13;;
12719;SDS011;6424;48.520;11.228;2022-07-23T04:28:30;7.47;;;5.97;;
12719;SDS011;6424;48.520;11.228;2022-07-23T04:31:10;7.10;;;5.37;;
12719;SDS011;6424;48.520;11.228;2022-07-23T04:33:51;6.20;;;5.53;;
12719;SDS011;6424;48.520;11.228;2022-07-23T04:36:32;6.03;;;5.47;;
12719;SDS011;6424;48.520;11.228;2022-07-23T04:39:13;5.67;;;5.17;;
12719;SDS011;6424;48.520;11.228;2022-07-23T04:41:54;5.20;;;4.80;;
12719;SDS011;6424;48.520;11.228;2022-07-23T04:44:35;5.30;;;4.80;;
12719;SDS011;6424;48.520;11.228;2022-07-23T04:47:15;5.80;;;5.23;;
12719;SDS011;6424;48.520;11.228;2022-07-23T04:49:56;5.97;;;5.47;;
12719;SDS011;6424;48.520;11.228;2022-07-23T04:52:23;5.60;;;4.97;;
12719;SDS011;6424;48.520;11.228;2022-07-23T04:55:04;7.07;;;5.40;;
12719;SDS011;6424;48.520;11.228;2022-07-23T04:57:45;5.50;;;5.00;;
12719;SDS011;6424;48.520;11.228;2022-07-23T05:00:26;6.60;;;5.27;;
12719;SDS011;6424;48.520;11.228;2022-07-23T05:03:07;5.83;;;5.27;;
12719;SDS011;6424;48.520;11.228;2022-07-23T05:05:47;5.90;;;5.37;;
12719;SDS011;6424;48.520;11.228;2022-07-23T05:08:28;5.70;;;5.00;;
12719;SDS011;6424;48.520;11.228;2022-07-23T05:11:09;5.60;;;5.10;;
12719;SDS011;6424;48.520;11.228;2022-07-23T05:13:50;5.33;;;4.87;;
12719;SDS011;6424;48.520;11.228;2022-07-23T05:16:31;4.80;;;4.40;;
12719;SDS011;6424;48.520;11.228;2022-07-23T05:19:12;5.03;;;4.60;;
12719;SDS011;6424;48.520;11.228;2022-07-23T05:21:53;5.50;;;5.00;;
12719;SDS011;6424;48.520;11.228;2022-07-23T05:24:34;5.13;;;4.63;;
12719;SDS011;6424;48.520;11.228;2022-07-23T05:27:15;5.47;;;4.97;;
12719;SDS011;6424;48.520;11.228;2022-07-23T05:29:56;7.30;;;4.83;;
12719;SDS011;6424;48.520;11.228;2022-07-23T05:32:37;5.03;;;4.53;;
12719;SDS011;6424;48.520;11.228;2022-07-23T05:35:17;5.43;;;4.93;;
12719;SDS011;6424;48.520;11.228;2022-07-23T05:37:58;5.70;;;4.57;;
12719;SDS011;6424;48.520;11.228;2022-07-23T05:40:39;5.13;;;4.63;;
12719;SDS011;6424;48.520;11.228;2022-07-23T05:43:20;5.30;;;4.83;;
12719;SDS011;6424;48.520;11.228;2022-07-23T05:46:01;5.27;;;4.77;;
12719;SDS011;6424;48.520;11.228;2022-07-23T05:48:42;5.17;;;4.60;;
12719;SDS011;6424;48.520;11.228;2022-07-23T05:51:23;5.33;;;4.83;;
12719;SDS011;6424;48.520;11.228;2022-07-23T05:54:05;5.10;;;4.70;;
12719;SDS011;6424;48.520;11.228;2022-07-23T05:56:46;5.83;;;4.97;;
12719;SDS011;6424;48.520;11.228;2022-07-23T05:59:26;5.67;;;5.10;;
12719;SDS011;6424;48.520;11.228;2022-07-23T06:02:07;4.83;;;4.43;;
12719;SDS011;6424;48.520;11.228;2022-07-23T06:04:48;6.77;;;5.00;;
12719;SDS011;6424;48.520;11.228;2022-07-23T06:07:29;5.13;;;4.73;;
12719;SDS011;6424;48.520;11.228;2022-07-23T06:10:10;5.00;;;4.50;;
12719;SDS011;6424;48.520;11.228;2022-07-23T06:12:51;6.47;;;5.37;;
12719;SDS011;6424;48.520;11.228;2022-07-23T06:15:31;5.40;;;4.90;;
12719;SDS011;6424;48.520;11.228;2022-07-23T06:18:12;5.80;;;5.30;;
12719;SDS011;6424;48.520;11.228;2022-07-23T06:20:53;5.57;;;5.07;;
12719;SDS011;6424;48.520;11.228;2022-07-23T06:23:34;7.03;;;5.97;;
12719;SDS011;6424;48.520;11.228;2022-07-23T06:26:15;6.40;;;5.23;;
12719;SDS011;6424;48.520;11.228;2022-07-23T06:28:56;5.93;;;5.37;;
12719;SDS011;6424;48.520;11.228;2022-07-23T06:31:37;6.97;;;5.07;;
12719;SDS011;6424;48.520;11.228;2022-07-23T06:34:18;5.60;;;5.13;;
12719;SDS011;6424;48.520;11.228;2022-07-23T06:37:01;6.60;;;5.37;;
12719;SDS011;6424;48.520;11.228;2022-07-23T06:39:42;6.43;;;5.47;;
12719;SDS011;6424;48.520;11.228;2022-07-23T06:42:23;6.43;;;5.40;;
12719;SDS011;6424;48.520;11.228;2022-07-23T06:45:04;7.77;;;6.50;;
12719;SDS011;6424;48.520;11.228;2022-07-23T06:47:46;7.47;;;5.93;;
12719;SDS011;6424;48.520;11.228;2022-07-23T06:50:12;7.10;;;6.47;;
12719;SDS011;6424;48.520;11.228;2022-07-23T06:52:52;7.00;;;6.30;;
12719;SDS011;6424;48.520;11.228;2022-07-23T06:55:18;6.40;;;5.80;;
12719;SDS011;6424;48.520;11.228;2022-07-23T06:57:59;6.87;;;6.17;;
12719;SDS011;6424;48.520;11.228;2022-07-23T07:00:40;6.00;;;5.50;;
12719;SDS011;6424;48.520;11.228;2022-07-23T07:03:06;6.83;;;6.13;;
12719;SDS011;6424;48.520;11.228;2022-07-23T07:05:32;7.00;;;6.00;;
12719;SDS011;6424;48.520;11.228;2022-07-23T07:08:12;7.70;;;6.37;;
12719;SDS011;6424;48.520;11.228;2022-07-23T07:10:53;7.97;;;6.63;;
12719;SDS011;6424;48.520;11.228;2022-07-23T07:13:34;7.77;;;6.60;;
12719;SDS011;6424;48.520;11.228;2022-07-23T07:16:00;9.20;;;6.73;;
12719;SDS011;6424;48.520;11.228;2022-07-23T07:18:41;7.63;;;6.93;;
12719;SDS011;6424;48.520;11.228;2022-07-23T07:21:21;8.27;;;6.87;;
12719;SDS011;6424;48.520;11.228;2022-07-23T07:24:02;6.77;;;6.17;;
12719;SDS011;6424;48.520;11.228;2022-07-23T07:26:43;7.30;;;6.60;;
12719;SDS011;6424;48.520;11.228;2022-07-23T07:29:24;8.40;;;6.37;;
12719;SDS011;6424;48.520;11.228;2022-07-23T07:32:05;8.87;;;6.83;;
12719;SDS011;6424;48.520;11.228;2022-07-23T07:34:45;7.10;;;6.33;;
12719;SDS011;6424;48.520;11.228;2022-07-23T07:37:26;7.07;;;6.47;;
12719;SDS011;6424;48.520;11.228;2022-07-23T07:40:07;9.00;;;7.20;;
12719;SDS011;6424;48.520;11.228;2022-07-23T07:42:51;7.23;;;6.40;;
12719;SDS011;6424;48.520;11.228;2022-07-23T07:45:22;7.67;;;6.97;;
12719;SDS011;6424;48.520;11.228;2022-07-23T07:48:04;7.27;;;6.47;;
12719;SDS011;6424;48.520;11.228;2022-07-23T07:50:45;7.03;;;6.43;;
12719;SDS011;6424;48.520;11.228;2022-07-23T07:53:26;7.63;;;6.30;;
12719;SDS011;6424;48.520;11.228;2022-07-23T07:56:07;8.20;;;6.60;;
12719;SDS011;6424;48.520;11.228;2022-07-23T07:58:48;7.57;;;6.83;;
12719;SDS011;6424;48.520;11.228;2022-07-23T08:01:29;7.80;;;6.60;;
12719;SDS011;6424;48.520;11.228;2022-07-23T08:04:10;7.90;;;7.20;;
12719;SDS011;6424;48.520;11.228;2022-07-23T08:06:51;8.10;;;7.33;;
12719;SDS011;6424;48.520;11.228;2022-07-23T08:09:31;7.83;;;7.00;;
12719;SDS011;6424;48.520;11.228;2022-07-23T08:12:12;7.93;;;7.00;;
12719;SDS011;6424;48.520;11.228;2022-07-23T08:14:53;9.70;;;6.80;;
12719;SDS011;6424;48.520;11.228;2022-07-23T08:17:34;6.93;;;6.23;;
12719;SDS011;6424;48.520;11.228;2022-07-23T08:20:16;7.83;;;7.03;;
12719;SDS011;6424;48.520;11.228;2022-07-23T08:22:47;8.23;;;7.10;;
12719;SDS011;6424;48.520;11.228;2022-07-23T08:25:32;10.33;;;7.60;;
12719;SDS011;6424;48.520;11.228;2022-07-23T08:28:17;8.53;;;7.17;;
12719;SDS011;6424;48.520;11.228;2022-07-23T08:30:58;11.13;;;7.00;;
12719;SDS011;6424;48.520;11.228;2022-07-23T08:33:39;7.80;;;7.10;;
12719;SDS011;6424;48.520;11.228;2022-07-23T08:36:20;12.27;;;8.27;;
12719;SDS011;6424;48.520;11.228;2022-07-23T08:39:01;10.27;;;8.13;;
12719;SDS011;6424;48.520;11.228;2022-07-23T08:41:43;8.73;;;7.83;;
12719;SDS011;6424;48.520;11.228;2022-07-23T08:44:24;8.40;;;7.27;;
12719;SDS011;6424;48.520;11.228;2022-07-23T08:47:05;8.50;;;7.60;;
12719;SDS011;6424;48.520;11.228;2022-07-23T08:49:46;9.03;;;7.53;;
12719;SDS011;6424;48.520;11.228;2022-07-23T08:52:27;7.53;;;6.87;;
12719;SDS011;6424;48.520;11.228;2022-07-23T08:55:10;9.60;;;7.60;;
12719;SDS011;6424;48.520;11.228;2022-07-23T08:57:51;8.30;;;7.43;;
12719;SDS011;6424;48.520;11.228;2022-07-23T09:00:33;9.50;;;7.57;;
12719;SDS011;6424;48.520;11.228;2022-07-23T09:03:15;7.57;;;6.90;;
12719;SDS011;6424;48.520;11.228;2022-07-23T09:06:09;8.93;;;7.40;;
12719;SDS011;6424;48.520;11.228;2022-07-23T09:08:50;7.67;;;6.87;;
12719;SDS011;6424;48.520;11.228;2022-07-23T09:11:31;7.83;;;7.07;;
12719;SDS011;6424;48.520;11.228;2022-07-23T09:13:57;7.27;;;6.50;;
12719;SDS011;6424;48.520;11.228;2022-07-23T09:16:41;7.57;;;6.97;;
12719;SDS011;6424;48.520;11.228;2022-07-23T09:19:27;7.43;;;6.73;;
12719;SDS011;6424;48.520;11.228;2022-07-23T09:25:10;8.03;;;7.33;;
12719;SDS011;6424;48.520;11.228;2022-07-23T09:27:57;13.87;;;8.10;;
12719;SDS011;6424;48.520;11.228;2022-07-23T09:30:42;8.03;;;7.37;;
12719;SDS011;6424;48.520;11.228;2022-07-23T09:33:29;7.57;;;6.90;;
12719;SDS011;6424;48.520;11.228;2022-07-23T09:36:10;7.53;;;6.53;;
12719;SDS011;6424;48.520;11.228;2022-07-23T09:38:52;7.30;;;6.57;;
12719;SDS011;6424;48.520;11.228;2022-07-23T09:41:37;6.53;;;5.90;;
12719;SDS011;6424;48.520;11.228;2022-07-23T09:44:25;7.63;;;5.90;;
12719;SDS011;6424;48.520;11.228;2022-07-23T09:47:06;6.50;;;5.37;;
12719;SDS011;6424;48.520;11.228;2022-07-23T09:50:07;6.53;;;5.20;;
12719;SDS011;6424;48.520;11.228;2022-07-23T09:52:49;5.80;;;5.30;;
12719;SDS011;6424;48.520;11.228;2022-07-23T09:55:31;5.83;;;5.33;;
12719;SDS011;6424;48.520;11.228;2022-07-23T09:58:16;6.17;;;5.57;;
12719;SDS011;6424;48.520;11.228;2022-07-23T10:01:01;5.63;;;5.13;;
12719;SDS011;6424;48.520;11.228;2022-07-23T10:03:43;6.10;;;5.50;;
12719;SDS011;6424;48.520;11.228;2022-07-23T10:06:25;7.67;;;5.03;;
12719;SDS011;6424;48.520;11.228;2022-07-23T10:09:07;7.50;;;5.53;;
12719;SDS011;6424;48.520;11.228;2022-07-23T10:11:51;5.80;;;4.83;;
12719;SDS011;6424;48.520;11.228;2022-07-23T10:14:21;5.73;;;5.13;;
12719;SDS011;6424;48.520;11.228;2022-07-23T10:17:03;6.10;;;5.60;;
12719;SDS011;6424;48.520;11.228;2022-07-23T10:19:44;6.33;;;5.83;;
12719;SDS011;6424;48.520;11.228;2022-07-23T10:28:58;5.70;;;5.27;;
12719;SDS011;6424;48.520;11.228;2022-07-23T10:31:58;5.57;;;5.07;;
12719;SDS011;6424;48.520;11.228;2022-07-23T10:35:03;6.27;;;5.70;;
12719;SDS011;6424;48.520;11.228;2022-07-23T10:37:39;5.70;;;5.20;;
12719;SDS011;6424;48.520;11.228;2022-07-23T10:40:11;7.40;;;5.10;;
12719;SDS011;6424;48.520;11.228;2022-07-23T10:42:58;5.87;;;5.37;;
12719;SDS011;6424;48.520;11.228;2022-07-23T10:51:11;5.50;;;5.10;;
12719;SDS011;6424;48.520;11.228;2022-07-23T10:53:59;6.20;;;5.60;;
12719;SDS011;6424;48.520;11.228;2022-07-23T10:56:49;6.13;;;5.57;;
12719;SDS011;6424;48.520;11.228;2022-07-23T11:02:53;6.27;;;5.50;;
12719;SDS011;6424;48.520;11.228;2022-07-23T11:05:43;8.10;;;5.80;;
12719;SDS011;6424;48.520;11.228;2022-07-23T11:08:25;6.03;;;5.53;;
12719;SDS011;6424;48.520;11.228;2022-07-23T11:13:47;6.13;;;5.53;;
12719;SDS011;6424;48.520;11.228;2022-07-23T11:16:28;6.13;;;5.57;;
12719;SDS011;6424;48.520;11.228;2022-07-23T11:19:09;6.20;;;5.70;;
12719;SDS011;6424;48.520;11.228;2022-07-23T11:21:51;6.17;;;5.60;;
12719;SDS011;6424;48.520;11.228;2022-07-23T11:24:32;6.33;;;5.83;;
12719;SDS011;6424;48.520;11.228;2022-07-23T11:27:40;7.07;;;5.53;;
12719;SDS011;6424;48.520;11.228;2022-07-23T11:36:02;6.35;;;5.85;;
12719;SDS011;6424;48.520;11.228;2022-07-23T11:38:43;7.45;;;5.75;;
12719;SDS011;6424;48.520;11.228;2022-07-23T11:41:25;7.05;;;5.97;;
12719;SDS011;6424;48.520;11.228;2022-07-23T11:44:08;5.95;;;5.45;;
12719;SDS011;6424;48.520;11.228;2022-07-23T11:46:56;6.85;;;5.82;;
12719;SDS011;6424;48.520;11.228;2022-07-23T11:49:37;6.47;;;5.88;;
12719;SDS011;6424;48.520;11.228;2022-07-23T11:52:18;6.63;;;6.03;;
12719;SDS011;6424;48.520;11.228;2022-07-23T11:55:01;6.22;;;5.53;;
12719;SDS011;6424;48.520;11.228;2022-07-23T11:57:45;6.93;;;5.78;;
12719;SDS011;6424;48.520;11.228;2022-07-23T12:00:27;7.03;;;5.75;;
12719;SDS011;6424;48.520;11.228;2022-07-23T12:03:09;6.20;;;5.60;;
12719;SDS011;6424;48.520;11.228;2022-07-23T12:05:55;6.07;;;5.57;;
12719;SDS011;6424;48.520;11.228;2022-07-23T12:08:22;6.15;;;5.25;;
12719;SDS011;6424;48.520;11.228;2022-07-23T12:11:03;5.35;;;4.85;;
12719;SDS011;6424;48.520;11.228;2022-07-23T12:13:55;6.05;;;5.55;;
12719;SDS011;6424;48.520;11.228;2022-07-23T12:16:36;6.30;;;5.80;;
12719;SDS011;6424;48.520;11.228;2022-07-23T12:19:17;6.10;;;5.53;;
12719;SDS011;6424;48.520;11.228;2022-07-23T12:21:58;6.15;;;5.60;;
12719;SDS011;6424;48.520;11.228;2022-07-23T12:24:56;5.68;;;5.18;;
12719;SDS011;6424;48.520;11.228;2022-07-23T12:27:39;6.47;;;5.88;;
12719;SDS011;6424;48.520;11.228;2022-07-23T12:30:24;6.20;;;5.70;;
12719;SDS011;6424;48.520;11.228;2022-07-23T12:32:52;6.03;;;5.32;;
12719;SDS011;6424;48.520;11.228;2022-07-23T12:35:40;6.03;;;5.43;;
12719;SDS011;6424;48.520;11.228;2022-07-23T12:38:23;6.07;;;5.55;;
12719;SDS011;6424;48.520;11.228;2022-07-23T12:41:07;6.28;;;5.70;;
12719;SDS011;6424;48.520;11.228;2022-07-23T12:43:48;6.43;;;5.82;;
12719;SDS011;6424;48.520;11.228;2022-07-23T12:46:28;6.43;;;5.88;;
12719;SDS011;6424;48.520;11.228;2022-07-23T12:48:59;5.80;;;5.30;;
12719;SDS011;6424;48.520;11.228;2022-07-23T12:51:40;6.07;;;5.47;;
12719;SDS011;6424;48.520;11.228;2022-07-23T12:54:26;5.85;;;5.35;;
12719;SDS011;6424;48.520;11.228;2022-07-23T12:57:08;6.70;;;5.70;;
12719;SDS011;6424;48.520;11.228;2022-07-23T12:59:34;6.00;;;5.50;;
12719;SDS011;6424;48.520;11.228;2022-07-23T13:02:14;5.85;;;5.28;;
12719;SDS011;6424;48.520;11.228;2022-07-23T13:04:55;6.30;;;5.70;;
12719;SDS011;6424;48.520;11.228;2022-07-23T13:07:36;5.68;;;5.15;;
12719;SDS011;6424;48.520;11.228;2022-07-23T13:10:16;6.47;;;5.78;;
12719;SDS011;6424;48.520;11.228;2022-07-23T13:12:57;6.60;;;5.97;;
12719;SDS011;6424;48.520;11.228;2022-07-23T13:15:38;9.40;;;6.40;;
12719;SDS011;6424;48.520;11.228;2022-07-23T13:18:19;6.00;;;5.50;;
12719;SDS011;6424;48.520;11.228;2022-07-23T13:21:02;6.70;;;6.00;;
12719;SDS011;6424;48.520;11.228;2022-07-23T13:23:28;6.60;;;6.00;;
12719;SDS011;6424;48.520;11.228;2022-07-23T13:26:09;6.18;;;5.68;;
12719;SDS011;6424;48.520;11.228;2022-07-23T13:28:35;6.30;;;5.70;;
12719;SDS011;6424;48.520;11.228;2022-07-23T13:31:16;6.18;;;5.60;;
12719;SDS011;6424;48.520;11.228;2022-07-23T13:33:57;6.55;;;5.78;;
12719;SDS011;6424;48.520;11.228;2022-07-23T13:36:38;5.85;;;5.25;;
12719;SDS011;6424;48.520;11.228;2022-07-23T13:39:19;6.57;;;5.93;;
12719;SDS011;6424;48.520;11.228;2022-07-23T13:42:00;6.10;;;5.60;;
12719;SDS011;6424;48.520;11.228;2022-07-23T13:44:40;6.40;;;5.90;;
12719;SDS011;6424;48.520;11.228;2022-07-23T13:47:06;5.87;;;5.37;;
12719;SDS011;6424;48.520;11.228;2022-07-23T13:49:32;6.30;;;5.70;;
12719;SDS011;6424;48.520;11.228;2022-07-23T13:52:13;6.60;;;5.83;;
12719;SDS011;6424;48.520;11.228;2022-07-23T13:54:54;7.20;;;5.60;;
12719;SDS011;6424;48.520;11.228;2022-07-23T13:57:35;8.60;;;6.60;;
12719;SDS011;6424;48.520;11.228;2022-07-23T14:00:16;7.27;;;6.67;;
12719;SDS011;6424;48.520;11.228;2022-07-23T14:02:57;7.00;;;6.10;;
12719;SDS011;6424;48.520;11.228;2022-07-23T14:05:39;6.83;;;6.23;;
12719;SDS011;6424;48.520;11.228;2022-07-23T14:08:20;9.07;;;6.60;;
12719;SDS011;6424;48.520;11.228;2022-07-23T14:11:01;7.00;;;6.30;;
12719;SDS011;6424;48.520;11.228;2022-07-23T14:13:42;7.30;;;6.60;;
12719;SDS011;6424;48.520;11.228;2022-07-23T14:16:08;6.67;;;6.07;;
12719;SDS011;6424;48.520;11.228;2022-07-23T14:18:49;6.87;;;6.17;;
12719;SDS011;6424;48.520;11.228;2022-07-23T14:21:30;7.17;;;6.53;;
12719;SDS011;6424;48.520;11.228;2022-07-23T14:24:11;7.07;;;6.37;;
12719;SDS011;6424;48.520;11.228;2022-07-23T14:26:51;6.90;;;6.30;;
12719;SDS011;6424;48.520;11.228;2022-07-23T14:29:32;9.07;;;6.40;;
12719;SDS011;6424;48.520;11.228;2022-07-23T14:32:13;6.57;;;5.97;;
12719;SDS011;6424;48.520;11.228;2022-07-23T14:34:54;6.47;;;5.77;;
12719;SDS011;6424;48.520;11.228;2022-07-23T14:37:35;6.50;;;5.90;;
12719;SDS011;6424;48.520;11.228;2022-07-23T14:40:16;6.13;;;5.53;;
12719;SDS011;6424;48.520;11.228;2022-07-23T14:42:57;7.37;;;6.77;;
12719;SDS011;6424;48.520;11.228;2022-07-23T14:45:37;6.97;;;6.23;;
12719;SDS011;6424;48.520;11.228;2022-07-23T14:48:19;7.83;;;7.10;;
12719;SDS011;6424;48.520;11.228;2022-07-23T14:50:59;6.57;;;5.93;;
12719;SDS011;6424;48.520;11.228;2022-07-23T14:53:40;5.87;;;5.37;;
12719;SDS011;6424;48.520;11.228;2022-07-23T14:56:21;6.60;;;6.00;;
12719;SDS011;6424;48.520;11.228;2022-07-23T14:59:05;7.63;;;6.63;;
12719;SDS011;6424;48.520;11.228;2022-07-23T15:01:46;6.73;;;6.13;;
12719;SDS011;6424;48.520;11.228;2022-07-23T15:04:27;6.57;;;6.00;;
12719;SDS011;6424;48.520;11.228;2022-07-23T15:07:08;8.07;;;6.33;;
12719;SDS011;6424;48.520;11.228;2022-07-23T15:09:49;7.47;;;6.83;;
12719;SDS011;6424;48.520;11.228;2022-07-23T15:12:15;8.00;;;7.07;;
12719;SDS011;6424;48.520;11.228;2022-07-23T15:14:55;7.10;;;6.50;;
12719;SDS011;6424;48.520;11.228;2022-07-23T15:17:36;8.20;;;7.40;;
12719;SDS011;6424;48.520;11.228;2022-07-23T15:20:02;6.37;;;5.77;;
12719;SDS011;6424;48.520;11.228;2022-07-23T15:22:43;6.10;;;5.50;;
12719;SDS011;6424;48.520;11.228;2022-07-23T15:25:10;6.63;;;6.00;;
12719;SDS011;6424;48.520;11.228;2022-07-23T15:27:51;5.77;;;5.27;;
12719;SDS011;6424;48.520;11.228;2022-07-23T15:30:32;6.37;;;5.87;;
12719;SDS011;6424;48.520;11.228;2022-07-23T15:33:13;6.63;;;6.03;;
12719;SDS011;6424;48.520;11.228;2022-07-23T15:35:53;5.90;;;5.40;;
12719;SDS011;6424;48.520;11.228;2022-07-23T15:38:23;6.17;;;5.57;;
12719;SDS011;6424;48.520;11.228;2022-07-23T15:41:05;7.23;;;6.53;;
12719;SDS011;6424;48.520;11.228;2022-07-23T15:43:46;5.93;;;5.43;;
12719;SDS011;6424;48.520;11.228;2022-07-23T15:46:26;6.03;;;5.43;;
12719;SDS011;6424;48.520;11.228;2022-07-23T15:49:08;6.83;;;5.67;;
12719;SDS011;6424;48.520;11.228;2022-07-23T15:51:49;5.90;;;5.43;;
12719;SDS011;6424;48.520;11.228;2022-07-23T15:54:30;6.80;;;6.20;;
12719;SDS011;6424;48.520;11.228;2022-07-23T15:57:11;6.17;;;5.60;;
12719;SDS011;6424;48.520;11.228;2022-07-23T15:59:52;6.50;;;6.00;;
12719;SDS011;6424;48.520;11.228;2022-07-23T16:02:36;5.70;;;5.20;;
12719;SDS011;6424;48.520;11.228;2022-07-23T16:05:02;5.40;;;4.90;;
12719;SDS011;6424;48.520;11.228;2022-07-23T16:08:02;6.30;;;5.70;;
12719;SDS011;6424;48.520;11.228;2022-07-23T16:10:44;6.20;;;5.33;;
12719;SDS011;6424;48.520;11.228;2022-07-23T16:13:25;5.50;;;5.10;;
12719;SDS011;6424;48.520;11.228;2022-07-23T16:16:06;7.33;;;5.77;;
12719;SDS011;6424;48.520;11.228;2022-07-23T16:18:48;6.60;;;6.00;;
12719;SDS011;6424;48.520;11.228;2022-07-23T16:21:30;6.60;;;6.03;;
12719;SDS011;6424;48.520;11.228;2022-07-23T16:24:11;6.17;;;5.57;;
12719;SDS011;6424;48.520;11.228;2022-07-23T16:26:52;5.67;;;5.17;;
12719;SDS011;6424;48.520;11.228;2022-07-23T16:29:33;6.43;;;5.37;;